sensor_id;sensor_type;location;lat;lon;timestamp;P1;durP1;ratioP1;P2;durP2;ratioP2
4023;SDS011;2026;51.002;13.668;2023-02-12T00:01:20;47.33;;;23.60;;
4023;SDS011;2026;51.002;13.668;2023-02-12T00:06:25;48.83;;;24.23;;
4023;SDS011;2026;51.002;13.668;2023-02-12T00:11:28;55.07;;;26.33;;
4023;SDS011;2026;51.002;13.668;2023-02-12T00:16:33;53.67;;;23.83;;
4023;SDS011;2026;51.002;13.668;2023-02-12T00:21:36;61.30;;;25.63;;
4023;SDS011;2026;51.002;13.668;2023-02-12T00:26:39;61.10;;;26.37;;
4023;SDS011;2026;51.002;13.668;2023-02-12T00:31:43;78.47;;;27.03;;
4023;SDS011;2026;51.002;13.668;2023-02-12T00:36:46;63.43;;;28.70;;
4023;SDS011;2026;51.002;13.668;2023-02-12T00:41:49;64.23;;;28.10;;
4023;SDS011;2026;51.002;13.668;2023-02-12T00:46:53;64.87;;;28.57;;
4023;SDS011;2026;51.002;13.668;2023-02-12T00:51:57;61.37;;;27.57;;
4023;SDS011;2026;51.002;13.668;2023-02-12T00:57:00;55.50;;;25.70;;
4023;SDS011;2026;51.002;13.668;2023-02-12T01:02:04;61.07;;;26.90;;
4023;SDS011;2026;51.002;13.668;2023-02-12T01:07:07;52.77;;;25.40;;
4023;SDS011;2026;51.002;13.668;2023-02-12T01:12:10;59.50;;;26.67;;
4023;SDS011;2026;51.002;13.668;2023-02-12T01:17:15;52.37;;;25.60;;
4023;SDS011;2026;51.002;13.668;2023-02-12T01:22:18;50.17;;;23.73;;
4023;SDS011;2026;51.002;13.668;2023-02-12T01:27:20;47.40;;;23.30;;
4023;SDS011;2026;51.002;13.668;2023-02-12T01:32:25;47.60;;;23.53;;
4023;SDS011;2026;51.002;13.668;2023-02-12T01:37:28;49.73;;;24.77;;
4023;SDS011;2026;51.002;13.668;2023-02-12T01:42:32;55.63;;;25.73;;
4023;SDS011;2026;51.002;13.668;2023-02-12T01:47:37;53.90;;;23.80;;
4023;SDS011;2026;51.002;13.668;2023-02-12T01:52:42;50.40;;;23.40;;
4023;SDS011;2026;51.002;13.668;2023-02-12T01:57:47;49.33;;;24.27;;
4023;SDS011;2026;51.002;13.668;2023-02-12T02:02:54;56.40;;;25.20;;
4023;SDS011;2026;51.002;13.668;2023-02-12T02:07:59;56.37;;;25.10;;
4023;SDS011;2026;51.002;13.668;2023-02-12T02:13:02;57.40;;;26.87;;
4023;SDS011;2026;51.002;13.668;2023-02-12T02:18:26;51.33;;;24.87;;
4023;SDS011;2026;51.002;13.668;2023-02-12T02:23:44;57.27;;;27.20;;
4023;SDS011;2026;51.002;13.668;2023-02-12T02:29:19;52.87;;;25.20;;
4023;SDS011;2026;51.002;13.668;2023-02-12T02:34:42;53.00;;;24.70;;
4023;SDS011;2026;51.002;13.668;2023-02-12T02:39:51;48.90;;;24.60;;
4023;SDS011;2026;51.002;13.668;2023-02-12T02:45:00;58.63;;;26.30;;
4023;SDS011;2026;51.002;13.668;2023-02-12T02:50:09;59.43;;;26.60;;
4023;SDS011;2026;51.002;13.668;2023-02-12T02:55:16;59.30;;;27.70;;
4023;SDS011;2026;51.002;13.668;2023-02-12T03:00:22;51.83;;;22.67;;
4023;SDS011;2026;51.002;13.668;2023-02-12T03:05:31;53.50;;;25.40;;
4023;SDS011;2026;51.002;13.668;2023-02-12T03:10:39;50.47;;;23.53;;
4023;SDS011;2026;51.002;13.668;2023-02-12T03:15:48;47.13;;;21.93;;
4023;SDS011;2026;51.002;13.668;2023-02-12T03:20:59;46.50;;;21.47;;
4023;SDS011;2026;51.002;13.668;2023-02-12T03:26:07;51.43;;;24.43;;
4023;SDS011;2026;51.002;13.668;2023-02-12T03:31:16;47.43;;;24.50;;
4023;SDS011;2026;51.002;13.668;2023-02-12T03:36:32;54.07;;;24.97;;
4023;SDS011;2026;51.002;13.668;2023-02-12T03:41:42;61.57;;;24.83;;
4023;SDS011;2026;51.002;13.668;2023-02-12T03:46:54;56.30;;;25.07;;
4023;SDS011;2026;51.002;13.668;2023-02-12T03:52:05;52.47;;;24.27;;
4023;SDS011;2026;51.002;13.668;2023-02-12T03:57:09;59.67;;;26.90;;
4023;SDS011;2026;51.002;13.668;2023-02-12T04:02:17;67.50;;;27.93;;
4023;SDS011;2026;51.002;13.668;2023-02-12T04:07:22;60.37;;;26.60;;
4023;SDS011;2026;51.002;13.668;2023-02-12T04:12:31;58.50;;;25.97;;
4023;SDS011;2026;51.002;13.668;2023-02-12T04:17:43;52.60;;;25.83;;
4023;SDS011;2026;51.002;13.668;2023-02-12T04:22:57;54.93;;;25.90;;
4023;SDS011;2026;51.002;13.668;2023-02-12T04:28:13;54.67;;;26.37;;
4023;SDS011;2026;51.002;13.668;2023-02-12T04:33:23;55.73;;;27.77;;
4023;SDS011;2026;51.002;13.668;2023-02-12T04:38:33;77.23;;;29.77;;
4023;SDS011;2026;51.002;13.668;2023-02-12T04:43:40;70.20;;;28.50;;
4023;SDS011;2026;51.002;13.668;2023-02-12T04:48:47;65.00;;;28.43;;
4023;SDS011;2026;51.002;13.668;2023-02-12T04:53:55;66.13;;;27.00;;
4023;SDS011;2026;51.002;13.668;2023-02-12T04:58:58;60.60;;;27.47;;
4023;SDS011;2026;51.002;13.668;2023-02-12T05:04:01;66.90;;;27.83;;
4023;SDS011;2026;51.002;13.668;2023-02-12T05:09:06;76.87;;;28.00;;
4023;SDS011;2026;51.002;13.668;2023-02-12T05:14:10;78.73;;;29.10;;
4023;SDS011;2026;51.002;13.668;2023-02-12T05:19:13;79.53;;;29.10;;
4023;SDS011;2026;51.002;13.668;2023-02-12T05:24:18;69.77;;;28.57;;
4023;SDS011;2026;51.002;13.668;2023-02-12T05:29:21;63.73;;;28.10;;
4023;SDS011;2026;51.002;13.668;2023-02-12T05:34:23;61.10;;;25.87;;
4023;SDS011;2026;51.002;13.668;2023-02-12T05:39:28;53.90;;;24.90;;
4023;SDS011;2026;51.002;13.668;2023-02-12T05:44:31;66.97;;;29.10;;
4023;SDS011;2026;51.002;13.668;2023-02-12T05:49:34;65.73;;;26.77;;
4023;SDS011;2026;51.002;13.668;2023-02-12T05:54:38;53.37;;;24.57;;
4023;SDS011;2026;51.002;13.668;2023-02-12T05:59:41;55.33;;;23.90;;
4023;SDS011;2026;51.002;13.668;2023-02-12T06:04:44;48.53;;;22.60;;
4023;SDS011;2026;51.002;13.668;2023-02-12T06:09:50;47.40;;;21.80;;
4023;SDS011;2026;51.002;13.668;2023-02-12T06:14:53;42.40;;;20.43;;
4023;SDS011;2026;51.002;13.668;2023-02-12T06:19:56;48.93;;;21.27;;
4023;SDS011;2026;51.002;13.668;2023-02-12T06:25:00;44.97;;;20.90;;
4023;SDS011;2026;51.002;13.668;2023-02-12T06:30:03;46.23;;;21.07;;
4023;SDS011;2026;51.002;13.668;2023-02-12T06:35:07;45.93;;;20.10;;
4023;SDS011;2026;51.002;13.668;2023-02-12T06:40:12;43.00;;;19.43;;
4023;SDS011;2026;51.002;13.668;2023-02-12T06:45:15;42.00;;;19.70;;
4023;SDS011;2026;51.002;13.668;2023-02-12T06:50:18;43.47;;;20.27;;
4023;SDS011;2026;51.002;13.668;2023-02-12T06:55:22;37.47;;;18.90;;
4023;SDS011;2026;51.002;13.668;2023-02-12T07:00:25;37.77;;;18.53;;
4023;SDS011;2026;51.002;13.668;2023-02-12T07:05:28;36.73;;;17.43;;
4023;SDS011;2026;51.002;13.668;2023-02-12T07:10:33;37.20;;;16.80;;
4023;SDS011;2026;51.002;13.668;2023-02-12T07:15:37;31.50;;;16.90;;
4023;SDS011;2026;51.002;13.668;2023-02-12T07:20:41;36.10;;;18.23;;
4023;SDS011;2026;51.002;13.668;2023-02-12T07:25:47;43.60;;;18.23;;
4023;SDS011;2026;51.002;13.668;2023-02-12T07:30:56;43.40;;;19.53;;
4023;SDS011;2026;51.002;13.668;2023-02-12T07:35:59;38.17;;;18.10;;
4023;SDS011;2026;51.002;13.668;2023-02-12T07:41:07;40.53;;;19.33;;
4023;SDS011;2026;51.002;13.668;2023-02-12T07:46:13;38.47;;;18.73;;
4023;SDS011;2026;51.002;13.668;2023-02-12T07:51:17;42.47;;;18.37;;
4023;SDS011;2026;51.002;13.668;2023-02-12T07:56:23;34.50;;;17.13;;
4023;SDS011;2026;51.002;13.668;2023-02-12T08:01:30;33.57;;;17.27;;
4023;SDS011;2026;51.002;13.668;2023-02-12T08:06:35;43.50;;;19.77;;
4023;SDS011;2026;51.002;13.668;2023-02-12T08:11:41;42.03;;;19.23;;
4023;SDS011;2026;51.002;13.668;2023-02-12T08:16:45;35.00;;;18.33;;
4023;SDS011;2026;51.002;13.668;2023-02-12T08:21:49;34.60;;;18.23;;
4023;SDS011;2026;51.002;13.668;2023-02-12T08:26:54;41.80;;;19.50;;
4023;SDS011;2026;51.002;13.668;2023-02-12T08:31:58;41.67;;;20.00;;
4023;SDS011;2026;51.002;13.668;2023-02-12T08:37:04;38.90;;;19.33;;
4023;SDS011;2026;51.002;13.668;2023-02-12T08:42:09;32.27;;;17.30;;
4023;SDS011;2026;51.002;13.668;2023-02-12T08:47:12;41.43;;;21.33;;
4023;SDS011;2026;51.002;13.668;2023-02-12T08:52:15;39.33;;;20.60;;
4023;SDS011;2026;51.002;13.668;2023-02-12T08:57:21;43.77;;;21.00;;
4023;SDS011;2026;51.002;13.668;2023-02-12T09:02:24;36.80;;;18.00;;
4023;SDS011;2026;51.002;13.668;2023-02-12T09:07:27;34.90;;;17.90;;
4023;SDS011;2026;51.002;13.668;2023-02-12T09:12:31;34.87;;;18.67;;
4023;SDS011;2026;51.002;13.668;2023-02-12T09:17:34;32.77;;;15.70;;
4023;SDS011;2026;51.002;13.668;2023-02-12T09:22:37;33.30;;;17.10;;
4023;SDS011;2026;51.002;13.668;2023-02-12T09:27:41;33.10;;;16.73;;
4023;SDS011;2026;51.002;13.668;2023-02-12T09:32:44;34.30;;;16.40;;
4023;SDS011;2026;51.002;13.668;2023-02-12T09:37:47;28.23;;;15.57;;
4023;SDS011;2026;51.002;13.668;2023-02-12T09:48:17;29.73;;;14.67;;
4023;SDS011;2026;51.002;13.668;2023-02-12T09:53:37;24.63;;;12.90;;
4023;SDS011;2026;51.002;13.668;2023-02-12T09:58:46;24.97;;;11.53;;
4023;SDS011;2026;51.002;13.668;2023-02-12T10:03:53;19.77;;;10.10;;
4023;SDS011;2026;51.002;13.668;2023-02-12T10:09:02;27.17;;;10.90;;
4023;SDS011;2026;51.002;13.668;2023-02-12T10:14:22;20.63;;;10.23;;
4023;SDS011;2026;51.002;13.668;2023-02-12T10:19:46;26.63;;;10.07;;
4023;SDS011;2026;51.002;13.668;2023-02-12T10:25:08;15.87;;;8.47;;
4023;SDS011;2026;51.002;13.668;2023-02-12T10:30:22;17.63;;;7.60;;
4023;SDS011;2026;51.002;13.668;2023-02-12T10:35:28;18.13;;;7.80;;
4023;SDS011;2026;51.002;13.668;2023-02-12T10:40:32;17.33;;;7.67;;
4023;SDS011;2026;51.002;13.668;2023-02-12T10:45:41;15.13;;;9.17;;
4023;SDS011;2026;51.002;13.668;2023-02-12T10:50:55;16.13;;;7.87;;
4023;SDS011;2026;51.002;13.668;2023-02-12T10:56:14;16.27;;;7.60;;
4023;SDS011;2026;51.002;13.668;2023-02-12T11:01:22;14.20;;;8.00;;
4023;SDS011;2026;51.002;13.668;2023-02-12T11:06:28;15.03;;;7.00;;
4023;SDS011;2026;51.002;13.668;2023-02-12T11:11:36;13.30;;;6.00;;
4023;SDS011;2026;51.002;13.668;2023-02-12T11:16:42;16.80;;;6.67;;
4023;SDS011;2026;51.002;13.668;2023-02-12T11:22:03;14.33;;;6.80;;
4023;SDS011;2026;51.002;13.668;2023-02-12T11:27:12;14.43;;;6.60;;
4023;SDS011;2026;51.002;13.668;2023-02-12T11:32:25;20.53;;;6.50;;
4023;SDS011;2026;51.002;13.668;2023-02-12T11:37:29;12.80;;;5.57;;
4023;SDS011;2026;51.002;13.668;2023-02-12T11:42:36;18.20;;;6.27;;
4023;SDS011;2026;51.002;13.668;2023-02-12T11:47:43;14.80;;;6.97;;
4023;SDS011;2026;51.002;13.668;2023-02-12T11:52:47;14.40;;;5.97;;
4023;SDS011;2026;51.002;13.668;2023-02-12T11:57:52;14.63;;;5.40;;
4023;SDS011;2026;51.002;13.668;2023-02-12T12:03:05;15.20;;;5.93;;
4023;SDS011;2026;51.002;13.668;2023-02-12T12:08:18;13.73;;;5.60;;
4023;SDS011;2026;51.002;13.668;2023-02-12T12:13:27;18.90;;;6.30;;
4023;SDS011;2026;51.002;13.668;2023-02-12T12:18:38;18.63;;;6.40;;
4023;SDS011;2026;51.002;13.668;2023-02-12T12:24:04;18.53;;;5.70;;
4023;SDS011;2026;51.002;13.668;2023-02-12T12:29:16;9.83;;;5.13;;
4023;SDS011;2026;51.002;13.668;2023-02-12T12:34:26;19.57;;;6.40;;
4023;SDS011;2026;51.002;13.668;2023-02-12T12:39:31;18.63;;;5.73;;
4023;SDS011;2026;51.002;13.668;2023-02-12T12:44:43;15.60;;;5.23;;
4023;SDS011;2026;51.002;13.668;2023-02-12T12:49:57;16.77;;;5.47;;
4023;SDS011;2026;51.002;13.668;2023-02-12T12:55:21;12.67;;;6.23;;
4023;SDS011;2026;51.002;13.668;2023-02-12T13:00:52;12.53;;;5.33;;
4023;SDS011;2026;51.002;13.668;2023-02-12T13:11:45;14.10;;;5.93;;
4023;SDS011;2026;51.002;13.668;2023-02-12T13:16:59;12.47;;;5.00;;
4023;SDS011;2026;51.002;13.668;2023-02-12T13:22:12;18.33;;;6.37;;
4023;SDS011;2026;51.002;13.668;2023-02-12T13:27:23;17.83;;;6.10;;
4023;SDS011;2026;51.002;13.668;2023-02-12T13:32:29;15.73;;;5.93;;
4023;SDS011;2026;51.002;13.668;2023-02-12T13:37:39;15.20;;;5.57;;
4023;SDS011;2026;51.002;13.668;2023-02-12T13:42:46;13.47;;;5.83;;
4023;SDS011;2026;51.002;13.668;2023-02-12T13:47:59;19.50;;;6.27;;
4023;SDS011;2026;51.002;13.668;2023-02-12T13:53:24;11.50;;;6.40;;
4023;SDS011;2026;51.002;13.668;2023-02-12T13:58:38;11.10;;;5.23;;
4023;SDS011;2026;51.002;13.668;2023-02-12T14:03:42;20.53;;;10.97;;
4023;SDS011;2026;51.002;13.668;2023-02-12T14:08:47;10.40;;;5.63;;
4023;SDS011;2026;51.002;13.668;2023-02-12T14:13:53;10.57;;;5.63;;
4023;SDS011;2026;51.002;13.668;2023-02-12T14:35:30;9.93;;;6.43;;
4023;SDS011;2026;51.002;13.668;2023-02-12T14:40:40;12.60;;;8.10;;
4023;SDS011;2026;51.002;13.668;2023-02-12T14:45:44;9.90;;;6.13;;
4023;SDS011;2026;51.002;13.668;2023-02-12T14:50:47;8.73;;;6.00;;
4023;SDS011;2026;51.002;13.668;2023-02-12T14:55:54;10.43;;;6.60;;
4023;SDS011;2026;51.002;13.668;2023-02-12T15:00:58;8.50;;;5.80;;
4023;SDS011;2026;51.002;13.668;2023-02-12T15:06:06;9.63;;;6.87;;
4023;SDS011;2026;51.002;13.668;2023-02-12T15:11:27;10.33;;;6.50;;
4023;SDS011;2026;51.002;13.668;2023-02-12T15:16:42;17.70;;;8.33;;
4023;SDS011;2026;51.002;13.668;2023-02-12T15:21:49;18.27;;;8.53;;
4023;SDS011;2026;51.002;13.668;2023-02-12T15:26:56;12.60;;;7.37;;
4023;SDS011;2026;51.002;13.668;2023-02-12T15:32:03;20.80;;;14.33;;
4023;SDS011;2026;51.002;13.668;2023-02-12T15:37:08;22.80;;;15.73;;
4023;SDS011;2026;51.002;13.668;2023-02-12T15:42:24;18.00;;;11.03;;
4023;SDS011;2026;51.002;13.668;2023-02-12T15:47:29;12.50;;;8.20;;
4023;SDS011;2026;51.002;13.668;2023-02-12T15:52:33;14.37;;;9.40;;
4023;SDS011;2026;51.002;13.668;2023-02-12T15:57:41;17.13;;;10.40;;
4023;SDS011;2026;51.002;13.668;2023-02-12T16:02:46;17.30;;;10.60;;
4023;SDS011;2026;51.002;13.668;2023-02-12T16:07:53;16.90;;;9.40;;
4023;SDS011;2026;51.002;13.668;2023-02-12T16:12:58;10.93;;;7.10;;
4023;SDS011;2026;51.002;13.668;2023-02-12T16:18:03;12.20;;;8.03;;
4023;SDS011;2026;51.002;13.668;2023-02-12T16:23:07;11.40;;;7.30;;
4023;SDS011;2026;51.002;13.668;2023-02-12T16:28:15;12.27;;;7.00;;
4023;SDS011;2026;51.002;13.668;2023-02-12T16:33:33;11.77;;;7.33;;
4023;SDS011;2026;51.002;13.668;2023-02-12T16:38:37;10.90;;;7.53;;
4023;SDS011;2026;51.002;13.668;2023-02-12T16:43:44;17.47;;;11.60;;
4023;SDS011;2026;51.002;13.668;2023-02-12T16:48:48;11.57;;;7.47;;
4023;SDS011;2026;51.002;13.668;2023-02-12T16:53:54;13.43;;;8.97;;
4023;SDS011;2026;51.002;13.668;2023-02-12T16:59:00;15.13;;;9.10;;
4023;SDS011;2026;51.002;13.668;2023-02-12T17:04:04;15.93;;;9.40;;
4023;SDS011;2026;51.002;13.668;2023-02-12T17:09:09;12.70;;;8.30;;
4023;SDS011;2026;51.002;13.668;2023-02-12T17:14:15;12.90;;;7.73;;
4023;SDS011;2026;51.002;13.668;2023-02-12T17:19:19;11.53;;;7.93;;
4023;SDS011;2026;51.002;13.668;2023-02-12T17:24:23;14.63;;;8.00;;
4023;SDS011;2026;51.002;13.668;2023-02-12T17:29:29;14.13;;;8.37;;
4023;SDS011;2026;51.002;13.668;2023-02-12T17:34:32;11.87;;;7.60;;
4023;SDS011;2026;51.002;13.668;2023-02-12T17:39:49;12.30;;;7.90;;
4023;SDS011;2026;51.002;13.668;2023-02-12T17:44:53;12.70;;;7.90;;
4023;SDS011;2026;51.002;13.668;2023-02-12T17:49:56;14.83;;;9.03;;
4023;SDS011;2026;51.002;13.668;2023-02-12T17:55:00;30.90;;;20.87;;
4023;SDS011;2026;51.002;13.668;2023-02-12T18:00:06;17.73;;;8.97;;
4023;SDS011;2026;51.002;13.668;2023-02-12T18:05:11;18.37;;;10.20;;
4023;SDS011;2026;51.002;13.668;2023-02-12T18:10:14;41.53;;;19.93;;
4023;SDS011;2026;51.002;13.668;2023-02-12T18:15:19;56.73;;;26.00;;
4023;SDS011;2026;51.002;13.668;2023-02-12T18:20:22;23.40;;;13.00;;
4023;SDS011;2026;51.002;13.668;2023-02-12T18:25:25;25.23;;;16.03;;
4023;SDS011;2026;51.002;13.668;2023-02-12T18:30:29;21.30;;;12.17;;
4023;SDS011;2026;51.002;13.668;2023-02-12T18:35:32;15.10;;;10.07;;
4023;SDS011;2026;51.002;13.668;2023-02-12T18:40:38;15.97;;;9.70;;
4023;SDS011;2026;51.002;13.668;2023-02-12T18:45:42;14.57;;;8.77;;
4023;SDS011;2026;51.002;13.668;2023-02-12T18:50:46;21.50;;;11.30;;
4023;SDS011;2026;51.002;13.668;2023-02-12T18:55:52;23.20;;;12.30;;
4023;SDS011;2026;51.002;13.668;2023-02-12T19:00:56;23.70;;;13.97;;
4023;SDS011;2026;51.002;13.668;2023-02-12T19:06:01;42.73;;;23.03;;
4023;SDS011;2026;51.002;13.668;2023-02-12T19:11:05;26.23;;;15.57;;
4023;SDS011;2026;51.002;13.668;2023-02-12T19:16:11;20.57;;;12.30;;
4023;SDS011;2026;51.002;13.668;2023-02-12T19:21:16;21.37;;;12.80;;
4023;SDS011;2026;51.002;13.668;2023-02-12T19:26:19;15.73;;;9.40;;
4023;SDS011;2026;51.002;13.668;2023-02-12T19:31:24;16.87;;;9.90;;
4023;SDS011;2026;51.002;13.668;2023-02-12T19:36:29;16.63;;;9.57;;
4023;SDS011;2026;51.002;13.668;2023-02-12T19:41:34;20.73;;;11.40;;
4023;SDS011;2026;51.002;13.668;2023-02-12T19:46:42;22.67;;;12.50;;
4023;SDS011;2026;51.002;13.668;2023-02-12T19:51:46;19.13;;;10.67;;
4023;SDS011;2026;51.002;13.668;2023-02-12T19:56:49;21.97;;;11.80;;
4023;SDS011;2026;51.002;13.668;2023-02-12T20:01:54;21.77;;;12.60;;
4023;SDS011;2026;51.002;13.668;2023-02-12T20:06:58;20.80;;;12.10;;
4023;SDS011;2026;51.002;13.668;2023-02-12T20:12:01;22.53;;;12.40;;
4023;SDS011;2026;51.002;13.668;2023-02-12T20:17:05;23.93;;;12.60;;
4023;SDS011;2026;51.002;13.668;2023-02-12T20:22:08;25.33;;;14.53;;
4023;SDS011;2026;51.002;13.668;2023-02-12T20:27:11;25.47;;;14.40;;
4023;SDS011;2026;51.002;13.668;2023-02-12T20:32:15;25.47;;;11.93;;
4023;SDS011;2026;51.002;13.668;2023-02-12T20:37:18;39.80;;;22.80;;
4023;SDS011;2026;51.002;13.668;2023-02-12T20:42:21;29.93;;;16.83;;
4023;SDS011;2026;51.002;13.668;2023-02-12T20:47:25;31.87;;;18.33;;
4023;SDS011;2026;51.002;13.668;2023-02-12T20:52:29;35.67;;;18.87;;
4023;SDS011;2026;51.002;13.668;2023-02-12T20:57:32;28.30;;;16.60;;
4023;SDS011;2026;51.002;13.668;2023-02-12T21:02:37;23.27;;;12.37;;
4023;SDS011;2026;51.002;13.668;2023-02-12T21:07:40;21.60;;;11.50;;
4023;SDS011;2026;51.002;13.668;2023-02-12T21:12:43;18.20;;;9.70;;
4023;SDS011;2026;51.002;13.668;2023-02-12T21:17:47;21.60;;;10.03;;
4023;SDS011;2026;51.002;13.668;2023-02-12T21:22:50;18.53;;;10.03;;
4023;SDS011;2026;51.002;13.668;2023-02-12T21:27:53;19.23;;;10.63;;
4023;SDS011;2026;51.002;13.668;2023-02-12T21:32:57;28.60;;;16.20;;
4023;SDS011;2026;51.002;13.668;2023-02-12T21:38:00;16.37;;;10.30;;
4023;SDS011;2026;51.002;13.668;2023-02-12T21:43:03;16.93;;;9.10;;
4023;SDS011;2026;51.002;13.668;2023-02-12T21:48:07;26.73;;;17.03;;
4023;SDS011;2026;51.002;13.668;2023-02-12T21:53:10;27.50;;;15.57;;
4023;SDS011;2026;51.002;13.668;2023-02-12T21:58:13;27.17;;;16.03;;
4023;SDS011;2026;51.002;13.668;2023-02-12T22:03:18;34.80;;;19.80;;
4023;SDS011;2026;51.002;13.668;2023-02-12T22:08:22;24.20;;;14.67;;
4023;SDS011;2026;51.002;13.668;2023-02-12T22:13:25;29.63;;;15.80;;
4023;SDS011;2026;51.002;13.668;2023-02-12T22:18:29;19.20;;;11.30;;
4023;SDS011;2026;51.002;13.668;2023-02-12T22:23:32;17.37;;;10.53;;
4023;SDS011;2026;51.002;13.668;2023-02-12T22:28:37;27.93;;;15.60;;
4023;SDS011;2026;51.002;13.668;2023-02-12T22:33:42;27.80;;;15.47;;
4023;SDS011;2026;51.002;13.668;2023-02-12T22:38:45;22.30;;;13.13;;
4023;SDS011;2026;51.002;13.668;2023-02-12T22:43:49;21.73;;;12.90;;
4023;SDS011;2026;51.002;13.668;2023-02-12T22:48:54;18.20;;;11.37;;
4023;SDS011;2026;51.002;13.668;2023-02-12T22:53:57;19.57;;;9.80;;
4023;SDS011;2026;51.002;13.668;2023-02-12T22:59:01;16.83;;;8.90;;
4023;SDS011;2026;51.002;13.668;2023-02-12T23:04:05;16.60;;;9.27;;
4023;SDS011;2026;51.002;13.668;2023-02-12T23:09:10;18.63;;;10.40;;
4023;SDS011;2026;51.002;13.668;2023-02-12T23:14:14;18.73;;;10.43;;
4023;SDS011;2026;51.002;13.668;2023-02-12T23:19:19;19.70;;;10.20;;
4023;SDS011;2026;51.002;13.668;2023-02-12T23:24:22;17.87;;;9.73;;
4023;SDS011;2026;51.002;13.668;2023-02-12T23:29:26;20.60;;;10.93;;
4023;SDS011;2026;51.002;13.668;2023-02-12T23:34:30;19.97;;;10.67;;
4023;SDS011;2026;51.002;13.668;2023-02-12T23:39:33;21.40;;;12.57;;
4023;SDS011;2026;51.002;13.668;2023-02-12T23:44:36;22.33;;;12.17;;
4023;SDS011;2026;51.002;13.668;2023-02-12T23:49:40;19.00;;;10.67;;
4023;SDS011;2026;51.002;13.668;2023-02-12T23:54:43;23.03;;;12.60;;
4023;SDS011;2026;51.002;13.668;2023-02-12T23:59:46;21.90;;;12.17;;
